Terminal Aerodrome Forecast
Issued by NWS

Home | Current Version | Previous Version | Text Only | Print | Product List | Glossary On
Versions: 1 2 3 4 5 6 7 8 9 10 11 12 13 14 15 16 17 18 19 20 21
104
FTUS43 KIND 021720
TAFBMG
TAF
KBMG 021720Z 0218/0318 28005KT P6SM OVC020
     FM022100 31005KT P6SM OVC035
     FM030300 34005KT 4SM BR OVC019
     FM031500 36005KT P6SM BKN030=

USA.gov is the U.S. government's official web portal to all federal, state and local government web resources and services.